Time;durP1;ratioP1;P1;durP2;ratioP2;P2;SDS_P1;SDS_P2;PMS_P1;PMS_P2;Temp;Humidity;BMP_temperature;BMP_pressure;BME280_temperature;BME280_humidity;BME280_pressure;Samples;Min_cycle;Max_cycle;Signal;HPM_P1;HPM_P2
2021/01/07 00:00:49;;;;;;;20.13;15.20;;;1.30;93.90;;;;;;5068440;28;20412;-84
2021/01/07 00:03:16;;;;;;;18.70;14.35;;;1.30;94.00;;;;;;5071955;28;20481;-85
2021/01/07 00:05:42;;;;;;;19.83;14.63;;;1.30;93.80;;;;;;5070571;28;20439;-84
2021/01/07 00:08:10;;;;;;;21.20;15.23;;;1.30;93.60;;;;;;5092816;28;20406;-84
2021/01/07 00:10:36;;;;;;;21.52;14.98;;;1.30;93.80;;;;;;5076006;28;20402;-84
2021/01/07 00:13:03;;;;;;;20.98;14.77;;;1.30;93.70;;;;;;5095480;28;20458;-84
2021/01/07 00:15:29;;;;;;;22.48;16.23;;;1.20;93.90;;;;;;5093918;28;20471;-84
2021/01/07 00:17:56;;;;;;;23.63;16.73;;;1.20;94.10;;;;;;5077359;28;20493;-84
2021/01/07 00:20:23;;;;;;;21.83;16.13;;;1.30;94.10;;;;;;5093388;28;20814;-84
2021/01/07 00:22:49;;;;;;;22.15;15.90;;;1.30;94.00;;;;;;5077469;28;20894;-84
2021/01/07 00:25:16;;;;;;;25.65;17.38;;;1.20;94.10;;;;;;5095301;28;20402;-85
2021/01/07 00:27:43;;;;;;;24.80;16.80;;;1.20;94.30;;;;;;5075336;28;20402;-85
2021/01/07 00:30:11;;;;;;;22.50;16.17;;;1.20;94.40;;;;;;5077707;28;20398;-84
2021/01/07 00:32:38;;;;;;;23.30;16.63;;;1.20;94.50;;;;;;5075809;28;20518;-84
2021/01/07 00:35:05;;;;;;;22.47;16.40;;;1.20;94.50;;;;;;5077391;28;20457;-84
2021/01/07 00:37:32;;;;;;;23.17;16.50;;;1.30;94.20;;;;;;5080768;28;20446;-84
2021/01/07 00:39:58;;;;;;;22.90;16.52;;;1.20;94.10;;;;;;5074526;28;20400;-84
2021/01/07 00:42:25;;;;;;;21.37;15.53;;;1.20;94.40;;;;;;5039298;28;20472;-84
2021/01/07 00:44:51;;;;;;;25.75;16.90;;;1.10;94.40;;;;;;5057343;28;20411;-84
2021/01/07 00:47:18;;;;;;;21.33;15.95;;;1.20;94.60;;;;;;5060321;28;20464;-84
2021/01/07 00:49:44;;;;;;;21.20;15.80;;;1.10;94.60;;;;;;5076799;28;20449;-84
2021/01/07 00:52:11;;;;;;;19.75;14.18;;;1.10;94.50;;;;;;5092589;28;20440;-84
2021/01/07 00:54:39;;;;;;;19.65;14.27;;;1.20;93.90;;;;;;5094666;28;20876;-84
2021/01/07 00:57:05;;;;;;;19.95;15.00;;;1.20;93.80;;;;;;5094993;28;20722;-84
2021/01/07 00:59:32;;;;;;;19.93;14.30;;;1.20;93.80;;;;;;5092069;28;20426;-84
2021/01/07 01:01:59;;;;;;;21.05;14.80;;;1.20;93.30;;;;;;5076615;28;20802;-84
2021/01/07 01:04:25;;;;;;;20.47;15.10;;;1.40;93.30;;;;;;5074799;28;20410;-84
2021/01/07 01:06:51;;;;;;;22.02;15.13;;;1.30;93.10;;;;;;5094318;28;20418;-85
2021/01/07 01:09:18;;;;;;;21.92;15.43;;;1.30;93.20;;;;;;5074427;28;21018;-85
2021/01/07 01:11:46;;;;;;;21.97;16.33;;;1.30;93.20;;;;;;5076523;28;20428;-84
2021/01/07 01:14:18;;;;;;;21.50;16.00;;;1.20;93.50;;;;;;5066397;28;20423;-85
2021/01/07 01:16:49;;;;;;;21.58;15.88;;;1.20;93.40;;;;;;5073274;28;20457;-84
2021/01/07 01:19:17;;;;;;;22.17;14.98;;;1.20;93.50;;;;;;5061133;28;20398;-85
2021/01/07 01:21:46;;;;;;;20.77;15.50;;;1.30;93.40;;;;;;5094549;28;20426;-84
2021/01/07 01:24:12;;;;;;;21.20;15.35;;;1.30;93.30;;;;;;5074000;28;20410;-84
2021/01/07 01:26:39;;;;;;;21.65;15.95;;;1.40;93.00;;;;;;5076168;28;20401;-84
2021/01/07 01:29:05;;;;;;;19.90;14.93;;;1.30;92.90;;;;;;5075308;28;20448;-84
2021/01/07 01:31:37;;;;;;;21.63;16.00;;;1.30;93.00;;;;;;5075609;28;20418;-84
2021/01/07 01:34:05;;;;;;;20.85;15.88;;;1.30;93.30;;;;;;5076320;28;21233;-84
2021/01/07 01:36:31;;;;;;;20.67;15.80;;;1.20;93.10;;;;;;5057205;28;20399;-85
2021/01/07 01:38:59;;;;;;;23.05;16.00;;;1.30;93.00;;;;;;5055623;28;20862;-84
2021/01/07 01:41:26;;;;;;;21.33;16.13;;;1.20;93.10;;;;;;5086485;28;20416;-84
2021/01/07 01:43:52;;;;;;;21.38;15.50;;;1.20;93.10;;;;;;5076141;28;20402;-84
2021/01/07 01:46:19;;;;;;;21.52;15.27;;;1.20;92.80;;;;;;5072774;28;20398;-85
2021/01/07 01:48:46;;;;;;;22.27;16.15;;;1.20;92.80;;;;;;5093869;28;20397;-84
2021/01/07 01:51:14;;;;;;;22.30;16.23;;;1.20;93.00;;;;;;5072877;28;20405;-84
2021/01/07 01:53:41;;;;;;;21.38;15.68;;;1.20;93.20;;;;;;5093873;28;20479;-84
2021/01/07 01:56:08;;;;;;;27.23;18.03;;;1.20;93.00;;;;;;5072774;28;20410;-84
2021/01/07 01:58:35;;;;;;;22.92;16.98;;;1.20;93.20;;;;;;5093912;28;20864;-84
2021/01/07 02:01:02;;;;;;;23.70;16.80;;;1.10;93.30;;;;;;5091331;28;20862;-85
2021/01/07 02:03:31;;;;;;;21.03;15.53;;;1.10;93.30;;;;;;5075916;28;20476;-84
2021/01/07 02:06:01;;;;;;;25.60;16.88;;;1.20;93.30;;;;;;5075276;28;20951;-85
2021/01/07 02:08:29;;;;;;;20.50;15.68;;;1.20;93.40;;;;;;5072952;28;20406;-85
2021/01/07 02:10:58;;;;;;;22.77;16.65;;;1.20;93.50;;;;;;5093259;28;20441;-85
2021/01/07 02:13:25;;;;;;;22.67;16.77;;;1.20;93.60;;;;;;5075302;28;20423;-85
2021/01/07 02:15:51;;;;;;;24.38;18.10;;;1.20;93.60;;;;;;5072964;28;20392;-84
2021/01/07 02:18:18;;;;;;;24.30;18.13;;;1.20;93.80;;;;;;5066297;28;20874;-85
2021/01/07 02:20:45;;;;;;;24.63;17.63;;;1.10;93.80;;;;;;5075406;28;20398;-85
2021/01/07 02:23:13;;;;;;;26.23;18.40;;;1.10;94.00;;;;;;5064693;28;20511;-85
2021/01/07 02:25:39;;;;;;;24.55;18.48;;;1.10;94.20;;;;;;5072759;28;20557;-84
2021/01/07 02:28:07;;;;;;;26.38;18.70;;;1.00;93.80;;;;;;5058884;28;20429;-85
2021/01/07 02:30:34;;;;;;;26.77;18.67;;;1.10;94.10;;;;;;5074770;28;20398;-85
2021/01/07 02:33:01;;;;;;;27.95;19.00;;;1.00;94.20;;;;;;5072937;28;20422;-85
2021/01/07 02:35:28;;;;;;;26.00;19.37;;;1.10;94.00;;;;;;5093055;28;20433;-85
2021/01/07 02:37:54;;;;;;;27.38;19.80;;;1.10;94.20;;;;;;5093192;28;20413;-85
2021/01/07 02:40:21;;;;;;;26.05;18.77;;;1.10;94.50;;;;;;5071838;28;20727;-84
2021/01/07 02:42:50;;;;;;;26.95;20.15;;;1.20;94.10;;;;;;5054665;28;20403;-84
2021/01/07 02:45:16;;;;;;;27.85;20.27;;;1.10;94.00;;;;;;5053753;28;20414;-84
2021/01/07 02:47:43;;;;;;;27.42;20.90;;;1.10;94.20;;;;;;5054965;28;20407;-84
2021/01/07 02:50:11;;;;;;;31.50;21.58;;;1.10;94.50;;;;;;5066275;28;21063;-85
2021/01/07 02:52:37;;;;;;;27.20;20.42;;;1.10;94.60;;;;;;5075045;28;20401;-85
2021/01/07 02:55:04;;;;;;;27.27;19.58;;;1.00;94.50;;;;;;5090158;28;20425;-85
2021/01/07 02:57:31;;;;;;;26.60;20.27;;;1.00;94.60;;;;;;5063154;28;20525;-85
2021/01/07 02:59:58;;;;;;;27.98;19.88;;;1.10;94.40;;;;;;5069239;28;20457;-84
2021/01/07 03:02:25;;;;;;;26.17;19.13;;;1.10;94.40;;;;;;5091353;28;20402;-84
2021/01/07 03:04:51;;;;;;;46.42;27.05;;;1.20;93.80;;;;;;5072464;28;20482;-85
2021/01/07 03:07:18;;;;;;;28.30;20.63;;;1.20;93.80;;;;;;5074662;28;20422;-84
2021/01/07 03:09:47;;;;;;;28.25;19.92;;;1.10;94.00;;;;;;5092665;28;20427;-84
2021/01/07 03:12:18;;;;;;;29.13;20.27;;;1.10;94.20;;;;;;5071226;28;20416;-84
2021/01/07 03:14:46;;;;;;;26.90;20.17;;;1.10;94.00;;;;;;5054249;28;20886;-84
2021/01/07 03:17:14;;;;;;;26.80;19.50;;;1.20;94.20;;;;;;5080041;28;20417;-84
2021/01/07 03:19:43;;;;;;;26.43;19.80;;;1.20;94.00;;;;;;5074653;28;20406;-84
2021/01/07 03:22:11;;;;;;;26.55;19.67;;;1.20;93.80;;;;;;5072037;28;20401;-84
2021/01/07 03:24:38;;;;;;;27.02;19.92;;;1.20;93.80;;;;;;5092342;28;20437;-85
2021/01/07 03:27:05;;;;;;;27.37;19.93;;;1.10;93.90;;;;;;5061346;28;20765;-85
2021/01/07 03:29:31;;;;;;;26.88;19.67;;;1.10;94.00;;;;;;5054659;28;20415;-84
2021/01/07 03:31:58;;;;;;;27.17;19.90;;;1.00;94.20;;;;;;5077288;28;20455;-84
2021/01/07 03:34:24;;;;;;;28.05;20.10;;;1.10;94.10;;;;;;5091830;28;20457;-85
2021/01/07 03:36:51;;;;;;;24.55;19.33;;;1.10;94.00;;;;;;5090431;28;20791;-84
2021/01/07 03:39:18;;;;;;;26.80;20.08;;;1.00;94.10;;;;;;5074482;28;20390;-84
2021/01/07 03:41:45;;;;;;;25.48;18.83;;;1.00;94.10;;;;;;5093686;28;20451;-84
2021/01/07 03:44:12;;;;;;;25.80;19.60;;;1.00;94.20;;;;;;5057998;28;20403;-84
2021/01/07 03:46:39;;;;;;;23.45;18.15;;;1.00;94.10;;;;;;5057950;28;20403;-84
2021/01/07 03:49:06;;;;;;;25.55;19.08;;;1.10;94.10;;;;;;5074658;28;20406;-85
2021/01/07 03:51:34;;;;;;;26.45;19.15;;;1.00;94.00;;;;;;5087804;28;20406;-85
2021/01/07 03:54:01;;;;;;;24.98;18.98;;;0.90;94.10;;;;;;5094189;28;20414;-85
2021/01/07 03:56:27;;;;;;;24.27;18.60;;;1.00;94.40;;;;;;5078123;28;20428;-85
2021/01/07 03:58:54;;;;;;;26.13;18.02;;;1.00;93.90;;;;;;5093512;28;20443;-85
2021/01/07 04:01:21;;;;;;;25.65;19.02;;;1.10;93.80;;;;;;5077902;28;20397;-85
2021/01/07 04:03:47;;;;;;;24.65;18.45;;;1.00;93.70;;;;;;5067896;28;20462;-85
2021/01/07 04:06:14;;;;;;;24.67;18.15;;;0.90;94.00;;;;;;5057962;28;20928;-85
2021/01/07 04:08:43;;;;;;;22.93;17.33;;;0.90;94.00;;;;;;5061206;28;20818;-85
2021/01/07 04:11:12;;;;;;;22.40;17.45;;;1.00;93.70;;;;;;5077913;28;20416;-85
2021/01/07 04:13:38;;;;;;;24.20;17.30;;;1.00;93.50;;;;;;5093449;28;20430;-84
2021/01/07 04:16:07;;;;;;;21.60;16.38;;;1.00;93.70;;;;;;5077392;28;20467;-85
2021/01/07 04:18:34;;;;;;;24.67;17.65;;;1.00;93.50;;;;;;5077786;28;20408;-84
2021/01/07 04:21:04;;;;;;;22.70;17.52;;;0.90;93.50;;;;;;5075041;28;20946;-84
2021/01/07 04:23:31;;;;;;;24.25;18.35;;;0.90;93.50;;;;;;5077431;28;20410;-85
2021/01/07 04:26:01;;;;;;;22.80;16.97;;;0.90;93.60;;;;;;5092937;28;20409;-85
2021/01/07 04:28:27;;;;;;;22.47;17.03;;;0.90;93.60;;;;;;5077883;28;20449;-85
2021/01/07 04:30:54;;;;;;;21.75;16.48;;;0.80;93.70;;;;;;5075211;28;20414;-85
2021/01/07 04:33:23;;;;;;;21.65;16.27;;;1.00;93.60;;;;;;5076985;28;20425;-85
2021/01/07 04:35:49;;;;;;;22.40;16.80;;;1.00;93.40;;;;;;5075201;28;20892;-85
2021/01/07 04:38:18;;;;;;;21.33;16.05;;;1.10;93.10;;;;;;5095171;28;20487;-85
2021/01/07 04:40:45;;;;;;;20.50;15.23;;;1.10;92.90;;;;;;5075106;28;20413;-85
2021/01/07 04:43:11;;;;;;;18.80;14.82;;;1.10;93.00;;;;;;5094914;28;20459;-84
2021/01/07 04:45:38;;;;;;;20.38;15.25;;;1.20;92.70;;;;;;5074500;28;20449;-84
2021/01/07 04:48:07;;;;;;;20.57;15.30;;;1.10;92.80;;;;;;5076973;28;20460;-84
2021/01/07 04:50:34;;;;;;;20.77;16.17;;;1.00;92.90;;;;;;5084876;28;20801;-84
2021/01/07 04:53:02;;;;;;;20.52;15.85;;;0.90;93.10;;;;;;5056898;28;20499;-84
2021/01/07 04:55:29;;;;;;;20.33;15.43;;;0.90;93.30;;;;;;5074506;28;20477;-85
2021/01/07 04:57:56;;;;;;;21.58;16.48;;;0.80;93.10;;;;;;5087299;28;20896;-84
2021/01/07 05:00:23;;;;;;;20.65;15.65;;;0.80;93.20;;;;;;5094534;28;20394;-85
2021/01/07 05:02:50;;;;;;;19.83;15.60;;;0.80;93.20;;;;;;5074417;28;20394;-85
2021/01/07 05:05:19;;;;;;;19.77;15.52;;;0.80;93.30;;;;;;5076599;28;20410;-85
2021/01/07 05:07:48;;;;;;;19.15;14.73;;;0.80;93.10;;;;;;5092789;28;20406;-84
2021/01/07 05:10:15;;;;;;;19.13;15.20;;;0.90;93.00;;;;;;5076769;28;20406;-85
2021/01/07 05:12:42;;;;;;;21.92;15.93;;;0.80;93.10;;;;;;5092758;28;20447;-85
2021/01/07 05:15:09;;;;;;;23.95;17.77;;;0.80;93.20;;;;;;5076139;28;20418;-85
2021/01/07 05:17:39;;;;;;;26.67;19.02;;;0.90;93.30;;;;;;5091818;28;20473;-84
2021/01/07 05:20:13;;;;;;;28.88;20.23;;;0.80;93.30;;;;;;5094434;28;20399;-84
2021/01/07 05:22:41;;;;;;;27.00;19.40;;;0.80;93.60;;;;;;5074583;28;20398;-84
2021/01/07 05:25:13;;;;;;;26.92;18.75;;;0.80;93.70;;;;;;5094662;28;20729;-84
2021/01/07 05:27:43;;;;;;;37.65;24.85;;;0.80;93.80;;;;;;5074371;28;20394;-84
2021/01/07 05:30:12;;;;;;;35.72;24.05;;;0.90;93.60;;;;;;5073859;28;20404;-85
2021/01/07 05:32:43;;;;;;;27.23;19.75;;;0.80;93.60;;;;;;5073675;28;20419;-85
2021/01/07 05:35:18;;;;;;;25.42;18.58;;;0.80;93.50;;;;;;5071814;28;20425;-84
2021/01/07 05:37:45;;;;;;;25.75;18.67;;;0.80;93.30;;;;;;5094193;28;20914;-84
2021/01/07 05:40:12;;;;;;;22.10;16.95;;;0.80;93.40;;;;;;5091605;28;20776;-85
2021/01/07 05:42:41;;;;;;;22.83;16.77;;;0.80;93.40;;;;;;5076082;28;20497;-85
2021/01/07 05:45:12;;;;;;;21.70;16.00;;;0.80;93.50;;;;;;5091339;28;20796;-84
2021/01/07 05:47:49;;;;;;;20.50;15.65;;;0.80;93.50;;;;;;5074974;28;20795;-84
2021/01/07 05:50:19;;;;;;;21.75;16.00;;;0.80;93.50;;;;;;5091526;28;20398;-84
2021/01/07 05:52:48;;;;;;;21.98;16.35;;;0.70;93.60;;;;;;5093217;28;20402;-84
2021/01/07 05:55:17;;;;;;;22.38;16.52;;;0.80;93.60;;;;;;5070877;28;20477;-84
2021/01/07 05:57:44;;;;;;;20.35;15.85;;;0.70;93.60;;;;;;5071897;28;20396;-84
2021/01/07 06:00:12;;;;;;;21.23;16.08;;;0.80;93.60;;;;;;5088959;28;20406;-84
2021/01/07 06:02:43;;;;;;;20.95;16.02;;;0.80;93.40;;;;;;5074217;28;20413;-84
2021/01/07 06:05:15;;;;;;;21.63;16.33;;;0.80;93.40;;;;;;5073364;28;20417;-85
2021/01/07 06:07:43;;;;;;;19.95;15.05;;;0.80;93.50;;;;;;5075726;28;20509;-85
2021/01/07 06:10:12;;;;;;;19.27;14.73;;;0.80;93.30;;;;;;5073770;28;20497;-84
2021/01/07 06:12:38;;;;;;;19.27;14.70;;;0.80;93.10;;;;;;5075887;28;20417;-85
2021/01/07 06:15:10;;;;;;;19.40;15.17;;;0.80;93.00;;;;;;5092769;28;20422;-85
2021/01/07 06:17:38;;;;;;;21.80;15.60;;;0.80;93.20;;;;;;5090968;28;20442;-85
2021/01/07 06:20:12;;;;;;;20.20;15.20;;;0.80;93.30;;;;;;5075652;28;20405;-85
2021/01/07 06:22:45;;;;;;;20.90;15.52;;;0.80;93.30;;;;;;5069771;28;20398;-85
2021/01/07 06:25:14;;;;;;;18.15;14.00;;;0.80;93.20;;;;;;5093406;28;20437;-85
2021/01/07 06:27:42;;;;;;;18.70;14.18;;;0.80;93.10;;;;;;5091341;28;20961;-85
2021/01/07 06:30:09;;;;;;;20.27;14.52;;;0.80;93.00;;;;;;5075545;28;20397;-85
2021/01/07 06:32:47;;;;;;;18.38;14.02;;;0.80;93.20;;;;;;5090521;28;20406;-85
2021/01/07 06:35:15;;;;;;;19.92;15.20;;;0.80;92.90;;;;;;5075489;28;20440;-85
2021/01/07 06:37:52;;;;;;;18.73;13.80;;;0.90;93.00;;;;;;5072880;28;20410;-85
2021/01/07 06:40:22;;;;;;;20.23;14.50;;;0.90;92.80;;;;;;5075675;28;20414;-84
2021/01/07 06:42:51;;;;;;;19.80;15.57;;;1.00;92.90;;;;;;5091481;28;20432;-85
2021/01/07 06:45:23;;;;;;;25.20;16.90;;;1.00;92.80;;;;;;5093252;28;20398;-85
2021/01/07 06:47:56;;;;;;;22.05;16.17;;;1.00;92.90;;;;;;5090257;28;20459;-85
2021/01/07 06:50:24;;;;;;;19.83;15.55;;;1.00;93.00;;;;;;5074913;28;20862;-85
2021/01/07 06:52:51;;;;;;;19.60;15.00;;;1.00;93.00;;;;;;5070553;28;20394;-85
2021/01/07 06:55:20;;;;;;;18.60;14.00;;;1.00;92.90;;;;;;5071197;28;20426;-85
2021/01/07 06:57:50;;;;;;;19.52;14.75;;;1.00;93.10;;;;;;5073096;28;20890;-84
2021/01/07 07:00:18;;;;;;;20.45;14.95;;;1.00;93.10;;;;;;5080206;28;20414;-85
2021/01/07 07:03:01;;;;;;;18.70;14.55;;;1.10;93.00;;;;;;5074254;28;20417;-85
2021/01/07 07:05:35;;;;;;;18.95;14.48;;;1.10;92.80;;;;;;5073679;28;20517;-84
2021/01/07 07:08:10;;;;;;;21.33;15.23;;;1.10;92.90;;;;;;5074783;28;20417;-84
2021/01/07 07:10:36;;;;;;;23.70;15.30;;;1.00;93.20;;;;;;5054631;28;20407;-85
2021/01/07 07:13:21;;;;;;;21.23;15.47;;;1.00;93.30;;;;;;5072655;28;20447;-84
2021/01/07 07:15:49;;;;;;;20.17;14.40;;;1.00;93.30;;;;;;5069609;28;20422;-84
2021/01/07 07:18:32;;;;;;;21.58;15.13;;;1.00;93.40;;;;;;5074654;28;20730;-85
2021/01/07 07:21:15;;;;;;;20.75;15.18;;;1.00;93.60;;;;;;5089607;28;20452;-84
2021/01/07 07:23:44;;;;;;;20.40;15.35;;;1.00;93.60;;;;;;5075177;28;20418;-85
2021/01/07 07:26:14;;;;;;;21.10;15.65;;;1.00;93.60;;;;;;5072228;28;20879;-85
2021/01/07 07:28:47;;;;;;;22.50;15.52;;;1.10;93.70;;;;;;5092630;28;20447;-84
2021/01/07 07:31:38;;;;;;;23.20;15.32;;;1.20;93.20;;;;;;5076901;28;20442;-84
2021/01/07 07:34:05;;;;;;;22.42;16.13;;;1.10;93.10;;;;;;5054434;28;20451;-85
2021/01/07 07:36:33;;;;;;;23.20;16.33;;;1.20;93.10;;;;;;5066541;28;20398;-85
2021/01/07 07:39:01;;;;;;;22.17;16.48;;;1.20;93.10;;;;;;5091962;28;20468;-86
2021/01/07 07:41:28;;;;;;;21.67;15.65;;;1.20;93.20;;;;;;5062081;28;20479;-85
2021/01/07 07:43:58;;;;;;;22.67;16.63;;;1.40;92.80;;;;;;5054874;28;20415;-85
2021/01/07 07:46:26;;;;;;;24.65;17.98;;;1.40;92.80;;;;;;5078264;28;20492;-85
2021/01/07 07:49:01;;;;;;;24.70;18.75;;;1.30;92.90;;;;;;5074847;28;20737;-86
2021/01/07 07:51:28;;;;;;;21.30;16.05;;;1.30;93.10;;;;;;5089694;28;20406;-86
2021/01/07 07:54:07;;;;;;;18.27;14.52;;;1.40;92.90;;;;;;5074736;28;20826;-86
2021/01/07 07:56:34;;;;;;;18.50;13.95;;;1.40;92.90;;;;;;5090584;28;20864;-85
2021/01/07 07:59:06;;;;;;;19.23;12.80;;;1.40;92.60;;;;;;5091370;28;20468;-87
2021/01/07 08:01:45;;;;;;;17.67;13.57;;;1.50;92.50;;;;;;5087324;28;20410;-87
2021/01/07 08:04:17;;;;;;;35.87;22.60;;;1.50;92.70;;;;;;5057230;28;20473;-87
2021/01/07 08:06:44;;;;;;;42.05;25.60;;;1.50;92.60;;;;;;5064340;28;20411;-86
2021/01/07 08:09:19;;;;;;;21.85;16.25;;;1.50;92.50;;;;;;5092142;28;20498;-89
2021/01/07 08:11:53;;;;;;;20.65;15.32;;;1.60;92.70;;;;;;5074707;28;20941;-88
2021/01/07 08:14:22;;;;;;;20.48;15.82;;;1.70;92.40;;;;;;5072361;28;20496;-85
2021/01/07 08:16:54;;;;;;;19.20;14.35;;;1.60;92.30;;;;;;5074057;28;20405;-85
2021/01/07 08:19:24;;;;;;;20.00;14.00;;;1.80;92.00;;;;;;5072345;28;20425;-87
2021/01/07 08:21:55;;;;;;;45.00;22.63;;;1.70;92.30;;;;;;5074159;28;20414;-87
2021/01/07 08:24:24;;;;;;;45.27;22.40;;;1.70;92.30;;;;;;5090405;28;20452;-87
2021/01/07 08:27:03;;;;;;;26.50;15.90;;;1.70;92.50;;;;;;5076796;28;20410;-86
2021/01/07 08:29:33;;;;;;;20.95;13.93;;;1.80;92.60;;;;;;5062034;28;20428;-88
2021/01/07 08:32:03;;;;;;;20.90;13.85;;;1.80;92.40;;;;;;5058254;28;20797;-86
2021/01/07 08:34:32;;;;;;;19.63;13.63;;;1.70;92.80;;;;;;5085994;28;20429;-88
2021/01/07 08:37:16;;;;;;;16.20;11.60;;;1.80;92.70;;;;;;5078243;28;20896;-90
2021/01/07 08:39:44;;;;;;;20.25;14.43;;;1.90;92.50;;;;;;5069338;28;20399;-88
2021/01/07 08:42:14;;;;;;;27.33;20.15;;;1.80;92.70;;;;;;5078368;28;20416;-88
2021/01/07 08:44:42;;;;;;;14.55;11.32;;;1.70;92.60;;;;;;5094306;28;20887;-90
2021/01/07 08:47:24;;;;;;;12.45;9.38;;;1.80;92.60;;;;;;5078746;28;20460;-90
2021/01/07 08:50:01;;;;;;;18.73;11.57;;;2.00;92.40;;;;;;5076293;28;20422;-86
2021/01/07 08:52:28;;;;;;;19.85;12.35;;;1.90;92.10;;;;;;5076902;28;20425;-90
2021/01/07 08:54:54;;;;;;;17.05;11.63;;;1.90;92.70;;;;;;5088817;28;21175;-88
2021/01/07 08:57:20;;;;;;;16.53;11.13;;;2.00;92.50;;;;;;5076416;28;20430;-88
2021/01/07 08:59:50;;;;;;;14.77;10.07;;;2.00;92.00;;;;;;5075766;28;20398;-87
2021/01/07 09:02:19;;;;;;;13.98;10.10;;;2.00;92.00;;;;;;5077241;28;20475;-88
2021/01/07 09:04:49;;;;;;;11.82;9.02;;;2.00;92.20;;;;;;5096264;28;20418;-92
2021/01/07 09:07:16;;;;;;;11.60;9.15;;;2.10;92.00;;;;;;5057468;28;20889;-90
2021/01/07 09:09:46;;;;;;;10.57;8.10;;;2.00;92.40;;;;;;5057352;28;20404;-85
2021/01/07 09:12:17;;;;;;;11.32;8.50;;;2.00;92.30;;;;;;5072156;28;20412;-91
2021/01/07 09:14:49;;;;;;;12.02;8.40;;;2.00;92.10;;;;;;5074924;28;20423;-90
2021/01/07 09:17:17;;;;;;;11.20;8.80;;;2.10;92.10;;;;;;5055224;28;20403;-90
2021/01/07 09:19:44;;;;;;;13.50;9.45;;;2.10;91.90;;;;;;5057506;28;20484;-90
2021/01/07 09:22:19;;;;;;;16.20;11.23;;;2.00;92.20;;;;;;5060276;28;20411;-91
2021/01/07 09:24:46;;;;;;;23.65;16.00;;;2.10;92.00;;;;;;5057195;28;20465;-87
2021/01/07 09:27:15;;;;;;;19.83;13.80;;;2.10;92.00;;;;;;5046164;28;20417;-89
2021/01/07 09:29:43;;;;;;;13.20;9.40;;;2.20;92.20;;;;;;5046872;28;20451;-88
2021/01/07 09:32:11;;;;;;;12.50;8.60;;;2.20;91.60;;;;;;5055594;28;20416;-89
2021/01/07 09:34:38;;;;;;;11.88;9.27;;;2.20;91.50;;;;;;5056963;28;20458;-89
2021/01/07 09:37:17;;;;;;;14.38;9.27;;;2.20;91.50;;;;;;5054204;28;20441;-87
2021/01/07 09:39:45;;;;;;;11.93;9.38;;;2.20;91.50;;;;;;5056582;28;21015;-84
2021/01/07 09:42:16;;;;;;;11.17;8.87;;;2.20;91.90;;;;;;5071253;28;20399;-84
2021/01/07 09:44:45;;;;;;;11.98;9.57;;;2.30;91.70;;;;;;5074399;28;20403;-85
2021/01/07 09:47:12;;;;;;;13.93;10.07;;;2.30;91.80;;;;;;5073233;28;20439;-87
2021/01/07 09:49:39;;;;;;;11.38;8.80;;;2.20;91.80;;;;;;5054813;28;20420;-85
2021/01/07 09:52:06;;;;;;;11.60;9.30;;;2.20;91.70;;;;;;5056679;28;20399;-85
2021/01/07 09:54:33;;;;;;;13.15;10.80;;;2.20;92.00;;;;;;5053919;28;20415;-83
2021/01/07 09:57:01;;;;;;;14.65;11.20;;;2.20;92.30;;;;;;5055612;28;20396;-86
2021/01/07 09:59:29;;;;;;;38.25;20.02;;;2.10;92.40;;;;;;5071023;28;20400;-86
2021/01/07 10:01:57;;;;;;;24.08;13.82;;;2.10;92.80;;;;;;5055839;28;21236;-86
2021/01/07 10:04:24;;;;;;;31.73;17.10;;;2.10;92.80;;;;;;5063791;28;20480;-86
2021/01/07 10:06:51;;;;;;;17.40;12.20;;;2.20;92.60;;;;;;5076142;28;20472;-86
2021/01/07 10:09:18;;;;;;;15.80;12.38;;;2.20;92.50;;;;;;5073424;28;20402;-85
2021/01/07 10:11:50;;;;;;;14.40;10.88;;;2.10;92.60;;;;;;5075922;28;20422;-87
2021/01/07 10:14:18;;;;;;;15.63;11.38;;;2.20;92.60;;;;;;5090534;28;20836;-83
2021/01/07 10:16:52;;;;;;;14.30;11.35;;;2.20;92.70;;;;;;5070703;28;20444;-85
2021/01/07 10:19:20;;;;;;;15.10;11.70;;;2.10;93.10;;;;;;5073114;28;20787;-86
2021/01/07 10:21:50;;;;;;;14.10;11.35;;;2.20;93.00;;;;;;5093807;28;20926;-87
2021/01/07 10:24:17;;;;;;;16.23;11.50;;;2.20;93.00;;;;;;5076068;28;20879;-85
2021/01/07 10:26:58;;;;;;;16.07;11.90;;;2.10;93.30;;;;;;5057526;28;20870;-87
2021/01/07 10:29:26;;;;;;;16.38;12.20;;;2.00;93.30;;;;;;5055885;28;20461;-89
2021/01/07 10:31:55;;;;;;;14.60;10.98;;;2.00;93.60;;;;;;5072715;28;20493;-87
2021/01/07 10:34:22;;;;;;;18.35;11.68;;;2.10;93.30;;;;;;5075649;28;20874;-87
2021/01/07 10:36:51;;;;;;;17.92;12.65;;;2.20;93.20;;;;;;5072195;28;20418;-87
2021/01/07 10:39:21;;;;;;;19.55;15.30;;;2.10;93.50;;;;;;5075296;28;20449;-86
2021/01/07 10:41:54;;;;;;;18.35;14.32;;;2.20;93.50;;;;;;5073263;28;20794;-86
2021/01/07 10:44:24;;;;;;;18.33;13.73;;;2.20;93.60;;;;;;5093404;28;20803;-83
2021/01/07 10:46:56;;;;;;;18.02;14.55;;;2.30;93.10;;;;;;5072994;28;20402;-89
2021/01/07 10:49:26;;;;;;;17.45;14.23;;;2.40;92.70;;;;;;5075457;28;20394;-86
2021/01/07 10:52:04;;;;;;;16.35;13.45;;;2.40;92.60;;;;;;5072647;28;20441;-87
2021/01/07 10:54:39;;;;;;;16.23;13.43;;;2.50;92.40;;;;;;5092430;28;20429;-87
2021/01/07 10:57:15;;;;;;;15.27;11.32;;;2.50;92.20;;;;;;5072549;28;20402;-86
2021/01/07 11:00:00;;;;;;;14.75;11.55;;;2.40;92.30;;;;;;5091859;28;20406;-85
2021/01/07 11:02:53;;;;;;;12.80;10.30;;;2.30;92.60;;;;;;5072468;28;20418;-85
2021/01/07 11:05:23;;;;;;;13.88;10.95;;;2.30;92.20;;;;;;5074676;28;20410;-85
2021/01/07 11:08:14;;;;;;;15.70;11.60;;;2.50;91.80;;;;;;5072913;28;20416;-85
2021/01/07 11:10:50;;;;;;;13.93;10.30;;;2.50;91.70;;;;;;5074935;28;20452;-85
2021/01/07 11:13:21;;;;;;;13.45;10.45;;;2.40;91.90;;;;;;5072557;28;20493;-86
2021/01/07 11:15:55;;;;;;;15.00;10.50;;;2.40;91.80;;;;;;5092561;28;20422;-86
2021/01/07 11:18:27;;;;;;;14.15;10.65;;;2.40;91.80;;;;;;5072169;28;20413;-86
2021/01/07 11:21:00;;;;;;;14.00;10.95;;;2.50;91.80;;;;;;5074329;28;20397;-86
2021/01/07 11:23:27;;;;;;;15.82;11.13;;;2.50;92.00;;;;;;5071798;28;20422;-86
2021/01/07 11:25:54;;;;;;;16.35;11.50;;;2.50;92.00;;;;;;5074417;28;20402;-86
2021/01/07 11:28:21;;;;;;;14.02;10.27;;;2.60;91.90;;;;;;5071840;28;20463;-86
2021/01/07 11:30:49;;;;;;;15.48;10.77;;;2.60;90.90;;;;;;5092070;28;20409;-86
2021/01/07 11:33:17;;;;;;;17.67;11.27;;;2.60;91.10;;;;;;5073373;28;20921;-86
2021/01/07 11:35:47;;;;;;;16.63;12.52;;;2.60;90.70;;;;;;5073475;28;20426;-87
2021/01/07 11:38:25;;;;;;;15.90;11.43;;;2.60;91.00;;;;;;5074729;28;20891;-87
2021/01/07 11:41:03;;;;;;;15.18;11.50;;;2.60;91.10;;;;;;5089991;28;20406;-86
2021/01/07 11:43:58;;;;;;;14.50;10.82;;;2.60;91.10;;;;;;5074413;28;20621;-86
2021/01/07 11:46:31;;;;;;;14.30;11.20;;;2.70;91.10;;;;;;5074371;28;20455;-87
2021/01/07 11:49:02;;;;;;;15.30;10.90;;;2.70;91.00;;;;;;5074379;28;20410;-86
2021/01/07 11:51:28;;;;;;;15.95;10.88;;;2.70;90.70;;;;;;5071803;28;20867;-86
2021/01/07 11:54:02;;;;;;;16.50;11.77;;;2.80;90.90;;;;;;5074827;28;20459;-86
2021/01/07 11:56:30;;;;;;;18.02;12.63;;;2.80;90.60;;;;;;5072090;28;20414;-86
2021/01/07 11:59:01;;;;;;;16.63;12.13;;;2.90;90.40;;;;;;5091977;28;20410;-86
2021/01/07 12:01:32;;;;;;;16.92;12.18;;;2.80;90.50;;;;;;5074682;28;20907;-86
2021/01/07 12:04:08;;;;;;;18.67;12.48;;;2.90;90.10;;;;;;5077640;28;20437;-86
2021/01/07 12:06:37;;;;;;;18.60;13.10;;;2.90;90.00;;;;;;5050447;28;20464;-86
2021/01/07 12:09:15;;;;;;;20.67;14.35;;;2.90;88.80;;;;;;5037382;28;20413;-86
2021/01/07 12:12:02;;;;;;;20.52;13.98;;;2.90;89.50;;;;;;5046811;28;20419;-88
2021/01/07 12:14:40;;;;;;;20.23;13.85;;;3.00;90.00;;;;;;5057761;28;20431;-86
2021/01/07 12:17:13;;;;;;;20.77;14.13;;;3.00;89.20;;;;;;5044293;28;20484;-85
2021/01/07 12:19:41;;;;;;;19.52;13.75;;;3.00;88.70;;;;;;5055190;28;20454;-89
2021/01/07 12:22:09;;;;;;;21.40;14.95;;;3.00;88.60;;;;;;5051233;28;20414;-87
2021/01/07 12:24:36;;;;;;;21.98;14.68;;;3.10;87.90;;;;;;5057779;28;20392;-86
2021/01/07 12:27:05;;;;;;;22.42;15.25;;;3.10;88.00;;;;;;5050103;28;20439;-89
2021/01/07 12:29:40;;;;;;;24.50;15.80;;;3.20;88.00;;;;;;5054987;28;20459;-89
2021/01/07 12:32:29;;;;;;;22.57;15.90;;;3.20;88.50;;;;;;5036725;28;20409;-89
2021/01/07 12:35:23;;;;;;;22.33;15.60;;;3.30;88.10;;;;;;5037472;28;20425;-89
2021/01/07 12:38:12;;;;;;;23.50;15.90;;;3.30;87.70;;;;;;5061574;28;20795;-89
2021/01/07 12:40:42;;;;;;;30.50;18.05;;;3.30;88.40;;;;;;5057251;28;20434;-87
2021/01/07 12:43:11;;;;;;;26.90;17.35;;;3.30;87.80;;;;;;5047561;28;20422;-86
2021/01/07 12:45:40;;;;;;;48.38;25.17;;;3.40;86.90;;;;;;5054872;28;20412;-86
2021/01/07 12:48:08;;;;;;;38.05;23.77;;;3.40;86.20;;;;;;5042088;28;20782;-86
2021/01/07 12:50:34;;;;;;;38.53;22.88;;;3.30;86.40;;;;;;5061030;28;20406;-86